Alsea, Oregon
Current Conditions -  °F | °C
As of 12:55 PM on Thursday 23 Oct 2014 (Local Time) from KCVO Reporting Station
Scattered Clouds Scattered Clouds  
Wind Chill: 61°   Ceiling: Unl
Heat Index: 61°   Visibility: 10mi
Dew Point: 55°   Wind: 12mph
Humidity: 82%   Direction: 190°S
Pressure: 29.94"   Gusts: NA
Location:  44.38°N, 123.6°W
Report Text: KCVO 231955Z AUTO 19010KT 10SM FEW050 SCT055 16/13 A2994 RMK AO1
Loading
Personal Weather Stations






























Interactive Weather Map New forecast layout! Learn more

10-Day Weather Forecast

Advertisements
Track Severe Weather on mobile